Terminal Aerodrome Forecast
Issued by NWS

Home | Current Version | Previous Version | Text Only | Print | Product List | Glossary On
Versions: 1 2 3 4 5 6 7 8 9 10 11 12 13 14 15 16 17 18 19 20
000
FTUS44 KMAF 291100
TAFPEQ
TAF
KPEQ 291122Z 2912/3012 09007KT P6SM FEW200
     FM292300 12012KT P6SM FEW200
     FM300300 13008KT P6SM FEW200=

USA.gov is the U.S. government's official web portal to all federal, state and local government web resources and services.